Strona główna
METAR-TAF:

METAR-TAF

Lotnisko :

Port lotniczy Chartum

Chartum, Sudan

Szerokość geograficzna: 15-36N, Długość geograficzna: 032-33E, wysokość: 382 m

Aktualna obserwacja pogody

Raport powstał 16 minut temu, godzina 08:30 UTC
Wiatr 13 kt od północno-północny wschód
Temperatura 26°C
Wilgotność 34%
Ciśnienie 1014 hPa
Widzialność: 6000 m

METAR: HSSS 230830Z 03013KT 6000 26/09 Q1014 NOSIG

czas: 10:46 (08:46 UTC)

Prognoza

Raport powstał 15 godziny i 46 minut temu, godzina 17:00 UTC
Prognoza ważna od 22 godzina 18 UTC do 23 godzina 24 UTC
Wiatr 12 kt od północ w porywach dochodzący do 22 kt
Widzialność 10 km lub więcej
Brak chmur poniżej 1500 m i brak chmur cumulonimbus
Przejściowo
od 23 godzina 04 UTC do 23 godzina 09 UTC
Widzialność: 6000 m

TAF: HSSS 221700Z 2218/2324 36012G22KT CAVOK TEMPO 2304/2309 6000

Obserwacja i prognoza pogody dla ponad 4000 lotnisk (raport METAR i TAF).

Dostępne stacje oznaczono żółtymi i czerwonymi punktami na mapie.

Najedź kursorem aby zobaczyć nazwę stacji.

Kliknij aby zobaczyć obserwacje i prognozy pogody.

Aby zmienić mapę: kliknij na zielony przycisk z czarnym krzyżykiem, aby powiększyć; na zielony przycisk z myślnikiem, aby pomniejszyć; na zielone strzałki, aby przejść do map sąsiednich.


METAR-TAF: